Time;durP1;ratioP1;P1;durP2;ratioP2;P2;SDS_P1;SDS_P2;PMS_P1;PMS_P2;Temp;Humidity;BMP_temperature;BMP_pressure;BME280_temperature;BME280_humidity;BME280_pressure;Samples;Min_cycle;Max_cycle;Signal;HPM_P1;HPM_P2
2021/03/19 00:01:53;;;;;;;9.73;7.83;;;2.30;99.90;;;;;;4923649;29;20454;-76
2021/03/19 00:04:19;;;;;;;11.07;8.17;;;2.30;99.90;;;;;;4928371;29;21011;-77
2021/03/19 00:06:46;;;;;;;9.67;7.70;;;2.30;99.90;;;;;;4922680;29;20520;-77
2021/03/19 00:09:13;;;;;;;10.73;8.83;;;2.30;99.90;;;;;;4930183;29;20482;-77
2021/03/19 00:11:40;;;;;;;12.17;8.33;;;2.30;99.90;;;;;;4923233;29;20451;-76
2021/03/19 00:14:09;;;;;;;11.13;8.43;;;2.30;99.90;;;;;;4922339;29;20975;-76
2021/03/19 00:16:36;;;;;;;10.63;8.37;;;2.30;99.90;;;;;;4927826;29;20451;-76
2021/03/19 00:19:03;;;;;;;10.43;8.80;;;2.30;99.90;;;;;;4932334;29;20451;-76
2021/03/19 00:21:30;;;;;;;9.80;8.03;;;2.30;99.90;;;;;;4924377;29;20477;-77
2021/03/19 00:23:56;;;;;;;8.97;7.67;;;2.30;99.90;;;;;;4925004;29;20546;-77
2021/03/19 00:26:24;;;;;;;9.97;7.97;;;2.40;99.90;;;;;;4930682;29;20527;-76
2021/03/19 00:28:50;;;;;;;10.63;7.83;;;2.40;99.90;;;;;;4926609;29;20461;-76
2021/03/19 00:31:17;;;;;;;7.80;6.90;;;2.30;99.90;;;;;;4974905;23;20520;-77
2021/03/19 00:33:43;;;;;;;12.33;7.17;;;2.40;99.90;;;;;;4962292;28;20458;-77
2021/03/19 00:36:09;;;;;;;10.53;7.20;;;2.30;99.90;;;;;;4948571;28;20967;-78
2021/03/19 00:38:36;;;;;;;7.97;6.87;;;2.40;99.90;;;;;;4969938;28;20444;-78
2021/03/19 00:41:03;;;;;;;11.23;8.47;;;2.40;99.90;;;;;;4973286;28;20991;-77
2021/03/19 00:43:30;;;;;;;10.03;7.77;;;2.50;99.90;;;;;;4957082;28;20461;-77
2021/03/19 00:45:56;;;;;;;9.03;7.37;;;2.50;99.90;;;;;;4973910;28;20856;-78
2021/03/19 00:48:23;;;;;;;11.10;7.50;;;2.50;99.90;;;;;;4964788;28;20455;-76
2021/03/19 00:50:50;;;;;;;8.63;7.13;;;2.50;99.90;;;;;;4973681;28;20484;-77
2021/03/19 00:53:17;;;;;;;12.93;8.20;;;2.40;99.90;;;;;;4973967;28;20436;-77
2021/03/19 00:55:43;;;;;;;10.87;7.67;;;2.50;99.90;;;;;;4970517;28;20445;-77
2021/03/19 00:58:09;;;;;;;9.00;7.53;;;2.40;99.90;;;;;;4973834;28;20446;-77
2021/03/19 01:00:38;;;;;;;11.63;7.57;;;2.40;99.90;;;;;;4973854;28;20454;-77
2021/03/19 01:03:06;;;;;;;10.53;7.50;;;2.40;99.90;;;;;;4973852;28;20813;-77
2021/03/19 01:05:35;;;;;;;8.30;6.50;;;2.40;99.90;;;;;;4964105;28;20462;-77
2021/03/19 01:08:02;;;;;;;8.10;6.90;;;2.30;99.90;;;;;;4966988;28;21189;-77
2021/03/19 01:10:31;;;;;;;10.27;7.90;;;2.30;99.90;;;;;;4972269;28;20487;-77
2021/03/19 01:12:57;;;;;;;7.70;6.90;;;2.30;99.90;;;;;;4968611;28;20446;-78
2021/03/19 01:15:24;;;;;;;10.03;8.07;;;2.20;99.90;;;;;;4973279;28;20443;-77
2021/03/19 01:17:52;;;;;;;12.10;8.03;;;2.20;99.90;;;;;;4964258;28;20450;-77
2021/03/19 01:20:19;;;;;;;9.17;6.93;;;2.20;99.90;;;;;;4971315;28;20459;-76
2021/03/19 01:22:47;;;;;;;10.73;7.83;;;2.20;99.90;;;;;;4964195;28;20461;-77
2021/03/19 01:25:16;;;;;;;12.07;7.63;;;2.10;99.90;;;;;;4973111;28;20452;-76
2021/03/19 01:27:43;;;;;;;8.67;7.20;;;2.00;99.90;;;;;;4964249;28;20468;-76
2021/03/19 01:30:12;;;;;;;9.33;8.27;;;2.00;99.90;;;;;;4972810;28;20882;-77
2021/03/19 01:32:39;;;;;;;11.23;8.67;;;1.90;99.90;;;;;;4973303;28;20437;-77
2021/03/19 01:35:07;;;;;;;8.57;7.67;;;1.90;99.90;;;;;;4963823;28;20468;-77
2021/03/19 01:37:33;;;;;;;8.80;7.63;;;1.90;99.90;;;;;;4951693;28;20513;-78
2021/03/19 01:40:00;;;;;;;13.13;11.80;;;1.80;99.90;;;;;;4963974;28;20481;-76
2021/03/19 01:42:26;;;;;;;14.33;13.00;;;1.70;99.90;;;;;;4973073;28;20437;-77
2021/03/19 01:45:31;;;;;;;15.00;8.80;;;1.70;99.90;;;;;;4972826;28;20442;-77
2021/03/19 01:48:43;;;;;;;11.50;10.40;;;1.70;99.90;;;;;;4963473;28;20453;-77
2021/03/19 01:51:47;;;;;;;12.03;10.17;;;1.60;99.90;;;;;;4951273;28;20920;-78
2021/03/19 01:54:51;;;;;;;14.70;13.30;;;1.60;99.90;;;;;;4972923;28;20440;-77
2021/03/19 01:57:54;;;;;;;15.00;13.27;;;1.60;99.90;;;;;;4972987;28;20492;-78
2021/03/19 02:00:58;;;;;;;15.40;13.90;;;1.60;99.90;;;;;;4962390;28;20482;-77
2021/03/19 02:04:02;;;;;;;14.43;13.03;;;1.50;99.90;;;;;;4971872;28;20570;-77
2021/03/19 02:07:05;;;;;;;14.87;13.47;;;1.50;99.90;;;;;;4963673;28;20462;-77
2021/03/19 02:10:09;;;;;;;14.67;13.20;;;1.50;99.90;;;;;;4972655;28;20481;-77
2021/03/19 02:13:12;;;;;;;13.93;12.73;;;1.40;99.90;;;;;;4968667;28;20438;-77
2021/03/19 02:16:16;;;;;;;14.53;13.13;;;1.40;99.90;;;;;;4968712;28;20457;-77
2021/03/19 02:19:20;;;;;;;14.80;13.40;;;1.30;99.90;;;;;;4972067;28;20500;-77
2021/03/19 02:22:23;;;;;;;16.47;14.77;;;1.30;99.90;;;;;;4966538;28;20457;-77
2021/03/19 02:25:27;;;;;;;15.13;13.63;;;1.20;99.90;;;;;;4957526;28;20445;-77
2021/03/19 02:28:31;;;;;;;14.57;13.27;;;1.20;99.90;;;;;;4963456;28;20448;-77
2021/03/19 02:31:09;;;;;;;15.20;13.70;;;1.10;99.90;;;;;;4955549;28;20547;-76
2021/03/19 02:33:39;;;;;;;14.53;13.23;;;1.10;99.90;;;;;;4972633;28;20443;-77
2021/03/19 02:36:06;;;;;;;13.93;12.73;;;1.00;99.90;;;;;;4972849;28;20444;-77
2021/03/19 02:38:32;;;;;;;14.23;12.80;;;1.00;99.90;;;;;;4955498;28;20976;-77
2021/03/19 02:40:58;;;;;;;15.27;13.77;;;0.90;99.90;;;;;;4972487;28;20461;-77
2021/03/19 02:43:25;;;;;;;15.13;13.57;;;1.00;99.90;;;;;;4971280;28;20939;-77
2021/03/19 02:45:52;;;;;;;15.67;14.20;;;0.90;99.90;;;;;;4972483;28;20433;-76
2021/03/19 02:48:19;;;;;;;16.17;14.77;;;0.90;99.90;;;;;;4972335;28;20434;-77
2021/03/19 02:50:46;;;;;;;16.33;14.73;;;0.90;99.90;;;;;;4972381;28;20489;-77
2021/03/19 02:53:14;;;;;;;17.17;15.47;;;0.80;99.90;;;;;;4972392;28;20437;-77
2021/03/19 02:55:40;;;;;;;16.93;14.97;;;0.80;99.90;;;;;;4972400;28;20472;-78
2021/03/19 02:58:07;;;;;;;17.63;15.90;;;0.80;99.90;;;;;;4971182;28;20453;-78
2021/03/19 03:00:34;;;;;;;18.17;16.37;;;0.80;99.90;;;;;;4964268;28;20464;-77
2021/03/19 03:03:01;;;;;;;17.57;15.77;;;0.80;99.90;;;;;;4972525;28;20460;-77
2021/03/19 03:05:28;;;;;;;18.40;16.53;;;0.80;99.90;;;;;;4974654;28;20437;-76
2021/03/19 03:07:56;;;;;;;21.10;17.60;;;0.90;99.90;;;;;;4975944;28;20488;-76
2021/03/19 03:10:27;;;;;;;19.33;17.37;;;0.90;99.90;;;;;;4975606;28;20547;-78
2021/03/19 03:12:53;;;;;;;19.10;16.60;;;0.90;99.90;;;;;;4975942;28;20971;-77
2021/03/19 03:15:21;;;;;;;17.47;15.70;;;0.90;99.90;;;;;;4966244;28;20453;-77
2021/03/19 03:17:47;;;;;;;18.53;16.50;;;0.90;99.90;;;;;;4974705;28;20464;-77
2021/03/19 03:20:16;;;;;;;17.20;15.33;;;0.80;99.90;;;;;;4966987;28;20465;-77
2021/03/19 03:22:43;;;;;;;16.80;15.20;;;0.80;99.90;;;;;;4975755;28;20464;-77
2021/03/19 03:25:14;;;;;;;15.97;14.47;;;0.80;99.90;;;;;;4968022;28;20509;-77
2021/03/19 03:27:40;;;;;;;18.40;16.37;;;0.70;99.90;;;;;;4974546;28;20454;-78
2021/03/19 03:30:11;;;;;;;19.07;17.17;;;0.70;99.90;;;;;;4975370;28;20519;-77
2021/03/19 03:32:37;;;;;;;20.47;18.33;;;0.70;99.90;;;;;;4974849;28;20441;-77
2021/03/19 03:35:05;;;;;;;20.70;18.57;;;0.70;99.90;;;;;;4975808;28;20442;-78
2021/03/19 03:37:31;;;;;;;20.07;18.07;;;0.70;99.90;;;;;;4975327;28;20840;-78
2021/03/19 03:39:58;;;;;;;20.57;17.63;;;0.70;99.90;;;;;;4975207;28;20438;-77
2021/03/19 03:42:25;;;;;;;20.37;18.23;;;0.70;99.90;;;;;;4976031;28;20441;-79
2021/03/19 03:44:51;;;;;;;19.03;17.13;;;0.70;99.90;;;;;;4974431;28;20458;-77
2021/03/19 03:47:18;;;;;;;19.70;17.60;;;0.60;99.90;;;;;;4976530;28;20441;-76
2021/03/19 03:49:45;;;;;;;20.07;17.60;;;0.60;99.90;;;;;;4976602;28;20473;-79
2021/03/19 03:52:11;;;;;;;18.67;16.70;;;0.60;99.90;;;;;;4975396;28;21218;-79
2021/03/19 03:54:37;;;;;;;19.00;16.97;;;0.60;99.90;;;;;;4961356;28;20462;-79
2021/03/19 03:57:04;;;;;;;19.87;16.93;;;0.60;99.90;;;;;;4977381;28;20515;-79
2021/03/19 03:59:31;;;;;;;20.90;18.53;;;0.60;99.90;;;;;;4976453;28;20446;-79
2021/03/19 04:01:58;;;;;;;23.20;19.23;;;0.60;99.90;;;;;;4969879;28;20550;-79
2021/03/19 04:04:24;;;;;;;20.27;18.17;;;0.70;99.90;;;;;;4975995;28;20501;-78
2021/03/19 04:06:50;;;;;;;20.60;18.60;;;0.80;99.90;;;;;;4960567;28;20450;-79
2021/03/19 04:09:17;;;;;;;21.90;19.60;;;0.80;99.90;;;;;;4976292;28;20437;-79
2021/03/19 04:11:43;;;;;;;20.07;17.90;;;0.90;99.90;;;;;;4962290;28;20981;-79
2021/03/19 04:14:10;;;;;;;19.03;17.03;;;0.90;99.90;;;;;;4976210;28;20825;-79
2021/03/19 04:16:37;;;;;;;19.63;17.63;;;0.90;99.90;;;;;;4976283;28;20955;-77
2021/03/19 04:19:03;;;;;;;20.67;18.53;;;0.90;99.90;;;;;;4970850;28;20462;-80
2021/03/19 04:21:30;;;;;;;21.33;18.07;;;0.90;99.90;;;;;;4973662;28;20458;-77
2021/03/19 04:23:56;;;;;;;19.33;17.43;;;0.80;99.90;;;;;;4973646;28;20500;-77
2021/03/19 04:26:28;;;;;;;20.43;18.53;;;0.80;99.90;;;;;;4958464;28;20466;-77
2021/03/19 04:28:54;;;;;;;20.67;18.57;;;0.90;99.90;;;;;;4966984;28;20508;-77
2021/03/19 04:31:21;;;;;;;20.10;18.10;;;0.90;99.90;;;;;;4972744;28;20485;-76
2021/03/19 04:33:49;;;;;;;19.23;17.30;;;0.80;99.90;;;;;;4975842;28;20445;-79
2021/03/19 04:36:32;;;;;;;18.53;16.80;;;0.90;99.90;;;;;;4977544;28;20976;-80
2021/03/19 04:39:04;;;;;;;18.23;16.33;;;0.90;99.90;;;;;;4979107;28;20520;-79
2021/03/19 04:41:31;;;;;;;19.13;17.03;;;0.90;99.90;;;;;;4961941;28;20469;-79
2021/03/19 04:43:58;;;;;;;19.97;17.97;;;0.90;99.90;;;;;;4977044;28;20525;-78
2021/03/19 04:46:24;;;;;;;18.53;16.73;;;1.00;99.90;;;;;;4977049;28;20437;-78
2021/03/19 04:48:52;;;;;;;19.07;17.17;;;1.10;99.90;;;;;;4977658;28;20449;-79
2021/03/19 04:51:18;;;;;;;18.97;17.13;;;1.20;99.90;;;;;;4978435;28;20485;-79
2021/03/19 04:53:45;;;;;;;19.60;17.67;;;1.20;99.90;;;;;;4977849;28;20438;-78
2021/03/19 04:56:11;;;;;;;20.97;18.77;;;1.20;99.90;;;;;;4977810;28;20449;-78
2021/03/19 04:58:37;;;;;;;19.27;17.27;;;1.20;99.90;;;;;;4978442;28;20959;-78
2021/03/19 05:01:04;;;;;;;20.23;18.03;;;1.30;99.90;;;;;;4969539;28;20468;-79
2021/03/19 05:03:32;;;;;;;18.43;16.63;;;1.30;99.90;;;;;;4978491;28;20434;-79
2021/03/19 05:05:59;;;;;;;18.87;16.97;;;1.30;99.90;;;;;;4978754;28;20440;-79
2021/03/19 05:08:26;;;;;;;19.90;17.50;;;1.30;99.90;;;;;;4971080;28;21082;-79
2021/03/19 05:10:52;;;;;;;18.57;16.20;;;1.20;99.90;;;;;;4962834;28;20890;-78
2021/03/19 05:13:18;;;;;;;17.90;16.27;;;1.20;99.90;;;;;;4969348;28;20455;-78
2021/03/19 05:15:46;;;;;;;17.50;15.90;;;1.30;99.90;;;;;;4978316;28;20449;-80
2021/03/19 05:18:13;;;;;;;18.47;16.57;;;1.30;99.90;;;;;;4974252;28;20446;-78
2021/03/19 05:20:40;;;;;;;18.47;16.60;;;1.30;99.90;;;;;;4978705;28;20449;-78
2021/03/19 05:23:24;;;;;;;17.97;16.33;;;1.30;99.90;;;;;;5153180;27;20511;-78
2021/03/19 05:25:51;;;;;;;17.80;16.10;;;1.20;99.90;;;;;;5145713;27;20466;-78
2021/03/19 05:28:19;;;;;;;18.87;17.07;;;1.20;99.90;;;;;;5138494;27;20811;-81
2021/03/19 05:30:46;;;;;;;20.10;17.77;;;1.20;99.90;;;;;;5136589;27;20477;-77
2021/03/19 05:33:12;;;;;;;20.47;18.33;;;1.20;99.90;;;;;;5117240;28;20566;-76
2021/03/19 05:35:39;;;;;;;19.40;17.40;;;1.30;99.90;;;;;;5119397;28;21011;-77
2021/03/19 05:38:06;;;;;;;17.70;16.10;;;1.30;99.90;;;;;;5119047;28;20427;-76
2021/03/19 05:40:39;;;;;;;16.63;15.03;;;1.30;99.90;;;;;;5115478;27;20468;-76
2021/03/19 05:43:29;;;;;;;17.53;15.97;;;1.30;99.90;;;;;;5107384;28;20514;-77
2021/03/19 05:45:58;;;;;;;19.10;17.27;;;1.30;99.90;;;;;;5111959;28;20431;-76
2021/03/19 05:48:26;;;;;;;20.00;17.93;;;1.30;99.90;;;;;;5120116;28;20439;-76
2021/03/19 05:50:53;;;;;;;19.80;17.47;;;1.40;99.90;;;;;;5113324;28;20477;-76
2021/03/19 05:53:21;;;;;;;18.83;16.97;;;1.50;99.90;;;;;;5118632;28;20436;-76
2021/03/19 05:55:49;;;;;;;19.43;17.53;;;1.60;99.90;;;;;;5124812;28;20455;-77
2021/03/19 05:58:23;;;;;;;18.57;16.83;;;1.60;99.90;;;;;;5124107;28;20462;-76
2021/03/19 06:00:54;;;;;;;17.83;16.07;;;1.70;99.90;;;;;;5117163;27;20472;-76
2021/03/19 06:03:21;;;;;;;19.60;17.73;;;1.80;99.90;;;;;;5117300;28;20439;-77
2021/03/19 06:06:00;;;;;;;18.83;17.03;;;1.90;99.90;;;;;;5116803;28;20985;-76
2021/03/19 06:08:29;;;;;;;17.83;16.13;;;1.90;99.90;;;;;;5119602;28;20438;-76
2021/03/19 06:11:06;;;;;;;17.27;14.63;;;2.00;99.90;;;;;;5118343;27;20471;-76
2021/03/19 06:13:45;;;;;;;19.07;15.47;;;2.10;99.90;;;;;;5119502;28;20443;-78
2021/03/19 06:16:30;;;;;;;18.90;17.00;;;2.30;99.90;;;;;;5119017;28;20435;-79
2021/03/19 06:18:58;;;;;;;19.63;17.80;;;2.40;99.90;;;;;;5124232;28;20448;-79
2021/03/19 06:21:28;;;;;;;13.30;11.37;;;2.40;99.90;;;;;;5118864;27;20483;-79
2021/03/19 06:24:05;;;;;;;13.37;11.47;;;2.40;99.90;;;;;;5112951;28;20448;-79
2021/03/19 06:26:38;;;;;;;14.87;11.47;;;2.50;99.90;;;;;;5110463;28;20875;-79
2021/03/19 06:29:11;;;;;;;14.83;11.97;;;2.60;99.90;;;;;;5115247;28;20435;-79
2021/03/19 06:31:40;;;;;;;12.57;11.27;;;2.60;99.90;;;;;;5111935;22;20505;-76
2021/03/19 06:34:15;;;;;;;18.20;16.50;;;2.60;99.90;;;;;;5020630;28;20517;-76
2021/03/19 06:36:56;;;;;;;11.43;9.87;;;2.50;99.90;;;;;;5012267;28;20470;-76
2021/03/19 06:39:26;;;;;;;13.63;11.53;;;2.50;99.90;;;;;;5028405;28;20449;-77
2021/03/19 06:42:12;;;;;;;11.93;10.47;;;2.50;99.90;;;;;;5023851;28;20491;-76
2021/03/19 06:44:39;;;;;;;13.50;10.90;;;2.50;99.90;;;;;;5027674;28;20445;-76
2021/03/19 06:47:09;;;;;;;12.33;10.60;;;2.50;99.90;;;;;;5033610;28;20450;-76
2021/03/19 06:49:55;;;;;;;12.77;10.80;;;2.60;99.90;;;;;;5032277;28;20433;-76
2021/03/19 06:52:28;;;;;;;12.30;9.97;;;2.70;99.90;;;;;;5032566;28;20495;-76
2021/03/19 06:54:56;;;;;;;13.00;9.73;;;2.80;99.90;;;;;;5056376;28;20459;-78
2021/03/19 06:57:28;;;;;;;16.27;14.67;;;2.90;99.90;;;;;;5033489;28;20459;-78
2021/03/19 06:59:55;;;;;;;15.87;14.30;;;3.00;99.90;;;;;;5033333;28;20478;-79
2021/03/19 07:02:57;;;;;;;16.70;14.27;;;3.00;99.90;;;;;;5032647;28;20577;-79
2021/03/19 07:05:53;;;;;;;15.60;14.10;;;3.10;99.90;;;;;;5012554;28;20964;-79
2021/03/19 07:08:33;;;;;;;13.23;11.77;;;3.10;99.90;;;;;;5010420;28;20459;-79
2021/03/19 07:11:24;;;;;;;15.20;13.70;;;3.10;99.90;;;;;;5034415;28;20465;-78
2021/03/19 07:14:18;;;;;;;16.57;12.90;;;3.20;99.90;;;;;;5028902;28;20453;-79
2021/03/19 07:16:57;;;;;;;13.30;11.00;;;3.30;99.90;;;;;;5027565;28;20441;-79
2021/03/19 07:19:25;;;;;;;14.90;12.37;;;3.40;99.90;;;;;;5032854;28;20446;-79
2021/03/19 07:22:05;;;;;;;17.87;11.83;;;3.50;99.90;;;;;;5033422;28;20470;-79
2021/03/19 07:25:03;;;;;;;12.77;10.90;;;3.80;99.90;;;;;;5033940;28;20456;-79
2021/03/19 07:27:47;;;;;;;13.40;10.30;;;3.90;99.90;;;;;;5032849;28;20447;-79
2021/03/19 07:30:23;;;;;;;12.90;10.93;;;4.00;99.90;;;;;;5030073;28;20458;-79
2021/03/19 07:33:21;;;;;;;15.43;11.50;;;3.90;99.90;;;;;;5032626;28;20446;-79
2021/03/19 07:36:00;;;;;;;13.00;9.67;;;3.80;99.90;;;;;;5027931;28;20438;-79
2021/03/19 07:38:49;;;;;;;11.27;10.00;;;4.00;99.90;;;;;;5034378;28;20456;-79
2021/03/19 07:41:45;;;;;;;12.63;10.13;;;4.00;99.90;;;;;;5032183;28;20493;-79
2021/03/19 07:44:36;;;;;;;13.10;11.23;;;4.20;99.90;;;;;;5058226;28;20455;-79
2021/03/19 07:47:30;;;;;;;12.23;10.93;;;4.30;99.90;;;;;;5030497;28;20227;-78
2021/03/19 07:50:11;;;;;;;15.50;14.10;;;4.40;99.90;;;;;;5029115;28;20435;-78
2021/03/19 07:52:58;;;;;;;10.73;8.97;;;4.50;99.90;;;;;;5025590;28;20192;-79
2021/03/19 07:55:30;;;;;;;14.27;11.13;;;4.60;99.90;;;;;;5033099;28;20706;-79
2021/03/19 07:58:02;;;;;;;12.33;9.20;;;4.60;99.90;;;;;;5033573;28;20200;-80
2021/03/19 08:00:32;;;;;;;9.30;8.20;;;4.70;99.90;;;;;;5032854;28;20254;-79
2021/03/19 08:03:10;;;;;;;13.93;11.13;;;4.90;99.90;;;;;;5035219;28;20250;-80
2021/03/19 08:05:45;;;;;;;17.57;16.10;;;5.20;99.90;;;;;;5027239;28;20277;-79
2021/03/19 08:08:19;;;;;;;17.63;16.17;;;5.50;99.90;;;;;;5063710;28;20203;-79
2021/03/19 08:11:04;;;;;;;16.03;14.53;;;5.60;99.90;;;;;;5032940;28;20318;-79
2021/03/19 08:13:42;;;;;;;17.77;16.27;;;5.70;99.90;;;;;;5031703;28;20207;-79
2021/03/19 08:16:15;;;;;;;18.27;16.77;;;5.50;99.90;;;;;;5029670;28;20203;-79
2021/03/19 08:18:47;;;;;;;16.53;15.13;;;5.50;99.90;;;;;;5031751;28;20219;-79
2021/03/19 08:21:32;;;;;;;17.37;15.93;;;5.50;99.90;;;;;;5030737;28;20224;-79
2021/03/19 08:24:08;;;;;;;17.63;16.17;;;5.50;99.90;;;;;;5030231;28;20193;-79
2021/03/19 08:26:47;;;;;;;17.40;15.90;;;5.40;99.90;;;;;;5023486;28;20191;-79
2021/03/19 08:29:22;;;;;;;17.37;15.67;;;5.50;99.90;;;;;;5032764;28;20231;-77
2021/03/19 08:31:56;;;;;;;18.27;16.83;;;5.40;99.90;;;;;;5031652;28;20246;-77
2021/03/19 08:34:34;;;;;;;17.77;16.27;;;5.30;99.90;;;;;;5032033;28;20306;-78
2021/03/19 08:37:00;;;;;;;17.50;16.07;;;5.30;99.90;;;;;;5033322;28;20188;-77
2021/03/19 08:39:34;;;;;;;17.90;16.40;;;5.40;99.90;;;;;;5031157;28;20200;-78
2021/03/19 08:42:04;;;;;;;18.17;16.67;;;5.40;99.90;;;;;;5032052;28;20262;-79
2021/03/19 08:44:35;;;;;;;16.93;15.53;;;5.20;99.90;;;;;;5031776;28;20202;-77
2021/03/19 08:47:20;;;;;;;17.63;16.23;;;5.10;99.90;;;;;;5031363;28;20203;-77
2021/03/19 08:49:50;;;;;;;18.03;16.43;;;5.00;99.90;;;;;;5025538;28;20198;-79
2021/03/19 08:52:24;;;;;;;17.17;15.77;;;5.00;99.90;;;;;;5030429;28;20216;-78
2021/03/19 08:55:21;;;;;;;19.27;17.47;;;4.90;99.90;;;;;;5030175;28;20206;-78
2021/03/19 08:57:50;;;;;;;17.17;15.63;;;4.60;99.90;;;;;;5023561;28;20613;-77
2021/03/19 09:01:01;;;;;;;17.37;15.97;;;4.50;99.90;;;;;;5030247;28;20200;-78
2021/03/19 09:03:54;;;;;;;19.37;17.67;;;4.50;99.90;;;;;;4970528;28;20279;-76
2021/03/19 09:06:25;;;;;;;18.50;16.80;;;4.40;99.90;;;;;;5024980;28;20196;-77
2021/03/19 09:09:20;;;;;;;18.10;16.50;;;4.50;99.90;;;;;;5030171;28;20207;-77
2021/03/19 09:12:10;;;;;;;18.87;17.23;;;4.60;99.90;;;;;;5019972;28;20274;-77
2021/03/19 09:14:48;;;;;;;17.40;15.90;;;4.80;99.90;;;;;;5030042;28;20208;-76
2021/03/19 09:17:57;;;;;;;18.57;16.73;;;5.00;99.90;;;;;;5031489;28;20699;-77
2021/03/19 09:20:41;;;;;;;17.37;15.70;;;5.00;99.90;;;;;;5029927;28;20219;-76
2021/03/19 09:23:18;;;;;;;16.57;15.17;;;5.10;99.90;;;;;;5029096;28;20594;-78
2021/03/19 09:25:51;;;;;;;17.63;16.13;;;5.30;99.90;;;;;;5023392;28;20203;-77
2021/03/19 09:28:26;;;;;;;16.87;15.57;;;5.40;99.90;;;;;;5031555;28;20595;-77
2021/03/19 09:30:57;;;;;;;17.30;15.77;;;5.30;99.90;;;;;;5025598;28;20246;-78
2021/03/19 09:33:56;;;;;;;16.10;14.77;;;5.20;99.90;;;;;;5029836;28;20195;-78
2021/03/19 09:37:06;;;;;;;16.27;14.87;;;5.30;99.90;;;;;;5029776;28;20207;-78
2021/03/19 09:40:06;;;;;;;15.83;14.53;;;5.30;99.90;;;;;;5051606;28;20208;-78
2021/03/19 09:42:41;;;;;;;17.50;16.00;;;5.20;99.90;;;;;;5029848;28;20223;-77
2021/03/19 09:45:36;;;;;;;17.07;15.73;;;5.20;99.90;;;;;;5027312;28;20216;-80
2021/03/19 09:48:23;;;;;;;16.97;15.57;;;5.20;99.90;;;;;;5018378;28;20223;-80
2021/03/19 09:51:16;;;;;;;18.20;16.60;;;5.20;99.90;;;;;;5025157;28;20220;-77
2021/03/19 09:53:42;;;;;;;17.17;15.70;;;5.10;99.90;;;;;;5024232;28;20200;-77
2021/03/19 09:56:19;;;;;;;18.67;17.07;;;5.10;99.90;;;;;;5029667;28;20200;-77
2021/03/19 09:58:47;;;;;;;17.83;16.33;;;5.10;99.90;;;;;;5031115;28;20195;-78
2021/03/19 10:01:39;;;;;;;17.77;16.17;;;5.10;99.90;;;;;;5030690;28;20220;-77
2021/03/19 10:04:07;;;;;;;17.87;16.27;;;5.20;99.90;;;;;;5030954;28;20192;-78
2021/03/19 10:06:36;;;;;;;18.30;16.63;;;5.00;99.90;;;;;;5022611;28;20191;-77
2021/03/19 10:09:25;;;;;;;18.77;16.77;;;4.90;99.90;;;;;;5033054;28;20204;-77
2021/03/19 10:11:56;;;;;;;17.23;15.63;;;4.80;99.90;;;;;;5035952;28;20252;-77
2021/03/19 10:14:25;;;;;;;17.77;16.20;;;4.60;99.90;;;;;;5031829;28;20204;-77
2021/03/19 10:17:03;;;;;;;17.40;15.80;;;4.30;99.90;;;;;;5034498;28;20701;-78
2021/03/19 10:19:34;;;;;;;17.50;15.87;;;4.20;99.90;;;;;;5033253;28;20668;-76
2021/03/19 10:22:01;;;;;;;20.67;18.60;;;4.10;99.90;;;;;;5033004;28;20471;-77
2021/03/19 10:24:27;;;;;;;20.37;18.53;;;3.90;99.90;;;;;;5055493;28;20208;-77
2021/03/19 10:27:01;;;;;;;22.47;20.33;;;3.80;99.90;;;;;;5029316;28;20195;-77
2021/03/19 10:29:31;;;;;;;21.77;19.77;;;3.70;99.90;;;;;;5029898;28;20200;-77
2021/03/19 10:32:01;;;;;;;20.60;18.57;;;3.60;99.90;;;;;;5029190;28;20482;-77
2021/03/19 10:34:42;;;;;;;20.90;18.93;;;3.50;99.90;;;;;;5033055;28;20446;-77
2021/03/19 10:37:19;;;;;;;20.50;18.50;;;3.40;99.90;;;;;;5037416;28;20441;-79
2021/03/19 10:39:51;;;;;;;22.17;20.17;;;3.30;99.90;;;;;;5036946;28;20844;-79
2021/03/19 10:42:26;;;;;;;19.57;17.87;;;3.30;99.90;;;;;;5060802;28;20475;-79
2021/03/19 10:45:00;;;;;;;19.77;17.97;;;3.20;99.90;;;;;;5036981;28;20938;-79
2021/03/19 10:47:30;;;;;;;20.73;18.90;;;3.20;99.90;;;;;;5035433;28;21134;-78
2021/03/19 10:50:03;;;;;;;21.03;19.13;;;3.10;99.90;;;;;;5035895;28;20485;-79
2021/03/19 10:52:34;;;;;;;21.43;19.43;;;3.30;99.90;;;;;;5036446;28;20458;-79
2021/03/19 10:55:04;;;;;;;21.60;19.70;;;3.40;99.90;;;;;;5037666;28;20444;-80
2021/03/19 10:57:35;;;;;;;21.40;19.40;;;3.40;99.90;;;;;;5040010;28;20441;-77
2021/03/19 11:00:29;;;;;;;15.23;11.80;;;3.40;99.90;;;;;;5033982;28;20429;-77
2021/03/19 11:02:57;;;;;;;13.83;10.93;;;3.50;99.90;;;;;;5027260;28;20536;-77
2021/03/19 11:05:24;;;;;;;14.23;11.67;;;3.60;99.90;;;;;;5032339;28;20446;-78
2021/03/19 11:07:50;;;;;;;15.43;12.37;;;3.80;99.90;;;;;;5060706;28;20454;-78
2021/03/19 11:10:27;;;;;;;14.60;11.83;;;4.00;99.90;;;;;;5033644;28;20839;-78
2021/03/19 11:12:57;;;;;;;18.03;11.97;;;4.20;99.90;;;;;;5032410;28;20430;-78
2021/03/19 11:15:37;;;;;;;15.17;11.97;;;4.30;99.90;;;;;;5033642;28;20461;-78
2021/03/19 11:18:18;;;;;;;16.20;11.60;;;4.50;99.90;;;;;;5034717;28;20434;-78
2021/03/19 11:20:46;;;;;;;14.63;11.77;;;4.50;99.90;;;;;;5058852;28;20274;-79
2021/03/19 11:23:35;;;;;;;15.07;12.00;;;4.40;99.90;;;;;;5033229;28;20698;-78
2021/03/19 11:26:19;;;;;;;14.13;11.80;;;4.40;99.90;;;;;;5029285;28;20516;-79
2021/03/19 11:28:48;;;;;;;14.07;11.93;;;4.40;99.90;;;;;;5055780;28;20448;-78
2021/03/19 11:31:21;;;;;;;13.40;11.70;;;4.50;99.90;;;;;;5034170;28;20224;-78
2021/03/19 11:34:26;;;;;;;15.50;13.90;;;4.80;99.90;;;;;;5033291;28;20978;-78
2021/03/19 11:36:58;;;;;;;16.67;15.17;;;5.00;99.90;;;;;;5033862;28;20437;-78
2021/03/19 11:39:39;;;;;;;17.23;15.63;;;5.20;99.90;;;;;;5030597;28;20200;-78
2021/03/19 11:42:07;;;;;;;11.87;9.33;;;5.40;99.90;;;;;;5031176;28;20227;-78
2021/03/19 11:44:34;;;;;;;11.13;8.87;;;5.50;99.90;;;;;;5058434;28;20200;-79
2021/03/19 11:47:17;;;;;;;10.90;9.40;;;5.50;99.90;;;;;;5034998;28;20196;-78
2021/03/19 11:49:43;;;;;;;10.97;9.00;;;5.60;99.90;;;;;;5028050;28;20579;-78
2021/03/19 11:52:11;;;;;;;9.17;8.07;;;5.90;99.90;;;;;;5033991;28;20226;-78
2021/03/19 11:54:38;;;;;;;8.97;7.83;;;6.00;99.90;;;;;;5034259;28;20184;-78
2021/03/19 11:57:06;;;;;;;10.20;9.17;;;5.90;99.90;;;;;;5034386;28;20240;-78
2021/03/19 11:59:33;;;;;;;11.47;10.47;;;5.90;99.90;;;;;;5030459;28;20219;-78
2021/03/19 12:02:02;;;;;;;10.40;9.37;;;6.10;99.90;;;;;;5034224;28;20217;-78
2021/03/19 12:04:28;;;;;;;10.47;9.37;;;6.00;99.90;;;;;;5032393;28;20588;-78
2021/03/19 12:06:55;;;;;;;10.27;9.13;;;5.60;99.90;;;;;;5023645;28;20207;-78
2021/03/19 12:09:22;;;;;;;10.43;9.33;;;5.50;99.90;;;;;;5032463;28;20346;-78
2021/03/19 12:11:48;;;;;;;11.43;9.00;;;5.10;99.90;;;;;;5031838;28;20692;-78
2021/03/19 12:14:20;;;;;;;10.03;8.17;;;4.80;99.90;;;;;;5057239;28;20203;-78
2021/03/19 12:16:48;;;;;;;7.07;6.33;;;4.60;99.90;;;;;;5033291;28;20572;-78
2021/03/19 12:19:15;;;;;;;9.53;6.73;;;4.40;99.90;;;;;;5031124;28;20200;-78
2021/03/19 12:21:42;;;;;;;7.37;6.40;;;4.20;99.90;;;;;;5033560;28;20218;-78
2021/03/19 12:24:10;;;;;;;11.73;10.53;;;4.20;99.90;;;;;;5034379;28;20279;-78
2021/03/19 12:26:37;;;;;;;11.20;10.10;;;4.10;99.90;;;;;;5034037;28;20199;-78
2021/03/19 12:29:03;;;;;;;6.57;5.90;;;4.10;99.90;;;;;;5032024;28;20195;-78
2021/03/19 12:31:30;;;;;;;8.10;6.60;;;4.10;99.90;;;;;;5063947;22;20501;-77
2021/03/19 12:33:57;;;;;;;7.80;6.40;;;4.20;99.90;;;;;;5052554;28;20304;-78
2021/03/19 12:36:23;;;;;;;7.67;6.50;;;4.10;99.90;;;;;;5046716;28;20207;-77
2021/03/19 12:38:50;;;;;;;6.70;5.90;;;4.10;99.90;;;;;;5047502;28;20491;-78
2021/03/19 12:41:16;;;;;;;7.43;6.10;;;4.20;99.90;;;;;;5054196;28;20531;-78
2021/03/19 12:43:42;;;;;;;7.87;6.27;;;4.30;99.90;;;;;;5060888;28;20482;-78
2021/03/19 12:46:09;;;;;;;8.47;6.87;;;4.50;99.90;;;;;;5059571;28;20442;-78
2021/03/19 12:48:35;;;;;;;8.30;6.70;;;4.60;99.90;;;;;;5059982;28;20210;-78
2021/03/19 12:51:02;;;;;;;6.47;5.63;;;4.80;99.90;;;;;;5063997;28;20995;-78
2021/03/19 12:53:33;;;;;;;7.83;6.80;;;4.90;99.90;;;;;;5057784;28;20198;-78
2021/03/19 12:56:03;;;;;;;6.87;5.90;;;5.10;99.90;;;;;;5059124;28;20199;-78
2021/03/19 12:58:30;;;;;;;7.73;6.20;;;5.20;99.90;;;;;;5061610;28;20198;-78
2021/03/19 13:00:57;;;;;;;7.90;6.47;;;5.40;99.90;;;;;;5061435;28;20215;-78
2021/03/19 13:03:25;;;;;;;7.53;6.53;;;5.40;99.90;;;;;;5063475;28;20222;-78
2021/03/19 13:05:52;;;;;;;7.03;6.17;;;5.30;99.90;;;;;;5062663;28;20191;-77
2021/03/19 13:08:19;;;;;;;8.23;6.77;;;5.20;99.90;;;;;;5064486;28;20197;-78
2021/03/19 13:10:46;;;;;;;7.30;6.23;;;5.10;99.90;;;;;;5061281;28;20216;-78
2021/03/19 13:13:12;;;;;;;7.47;6.50;;;5.20;99.90;;;;;;5059115;28;20249;-78
2021/03/19 13:15:39;;;;;;;7.87;6.83;;;5.40;99.90;;;;;;5062342;28;20186;-78